createdAt,value
2022-10-23T00:01:47.219Z,87.43
2022-10-23T00:04:21.483Z,80.97
2022-10-23T00:06:49.891Z,58.30
2022-10-23T00:09:20.515Z,68.50
2022-10-23T00:11:50.250Z,79.43
2022-10-23T00:14:21.493Z,75.17
2022-10-23T00:16:49.122Z,74.73
2022-10-23T00:19:16.770Z,61.50
2022-10-23T00:21:44.872Z,66.50
2022-10-23T00:24:13.154Z,55.47
2022-10-23T00:26:41.491Z,62.00
2022-10-23T00:29:10.984Z,60.72
2022-10-23T00:31:38.546Z,63.50
2022-10-23T00:34:08.636Z,62.00
2022-10-23T00:36:37.753Z,58.87
2022-10-23T00:39:06.147Z,78.00
2022-10-23T00:41:34.715Z,64.47
2022-10-23T00:44:09.600Z,64.37
2022-10-23T00:46:38.859Z,62.57
2022-10-23T00:49:08.171Z,66.60
2022-10-23T00:51:45.577Z,71.65
2022-10-23T00:54:30.425Z,64.37
2022-10-23T00:57:01.704Z,48.60
2022-10-23T00:59:30.462Z,61.97
2022-10-23T01:01:58.852Z,65.25
2022-10-23T01:04:28.280Z,60.25
2022-10-23T01:07:20.282Z,49.42
2022-10-23T01:10:14.251Z,63.23
2022-10-23T01:12:58.608Z,64.53
2022-10-23T01:15:29.229Z,63.17
2022-10-23T01:18:27.736Z,54.33
2022-10-23T01:21:17.675Z,54.47
2022-10-23T01:24:09.724Z,51.57
2022-10-23T01:27:11.836Z,52.50
2022-10-23T01:30:01.973Z,44.87
2022-10-23T01:32:55.175Z,46.77
2022-10-23T01:35:29.555Z,51.90
2022-10-23T01:38:23.961Z,47.27
2022-10-23T01:41:03.224Z,49.03
2022-10-23T01:43:45.139Z,57.90
2022-10-23T01:46:17.894Z,50.90
2022-10-23T01:48:54.914Z,50.00
2022-10-23T01:51:27.296Z,47.70
2022-10-23T01:53:59.936Z,50.00
2022-10-23T01:56:33.600Z,53.97
2022-10-23T01:59:05.241Z,45.70
2022-10-23T02:01:35.232Z,46.40
2022-10-23T02:06:33.517Z,47.03
2022-10-23T02:09:00.988Z,49.60
2022-10-23T02:11:29.995Z,57.97
2022-10-23T02:14:04.133Z,56.08
2022-10-23T02:16:54.758Z,62.87
2022-10-23T02:19:37.897Z,61.37
2022-10-23T02:22:06.140Z,60.47
2022-10-23T02:24:42.826Z,63.83
2022-10-23T02:27:19.164Z,54.57
2022-10-23T02:29:52.922Z,62.50
2022-10-23T02:32:24.817Z,51.87
2022-10-23T02:34:52.049Z,52.53
2022-10-23T02:37:19.538Z,56.17
2022-10-23T02:39:48.474Z,54.33
2022-10-23T02:45:19.671Z,54.60
2022-10-23T02:48:12.845Z,59.60
2022-10-23T02:51:25.586Z,58.43
2022-10-23T02:54:16.417Z,56.83
2022-10-23T02:56:57.141Z,55.77
2022-10-23T03:00:04.987Z,41.97
2022-10-23T03:02:40.509Z,44.78
2022-10-23T03:05:12.558Z,49.37
2022-10-23T03:07:41.501Z,48.13
2022-10-23T03:10:10.828Z,49.20
2022-10-23T03:12:39.050Z,57.00
2022-10-23T03:15:08.590Z,59.15
2022-10-23T03:17:35.975Z,51.78
2022-10-23T03:20:05.019Z,45.67
2022-10-23T03:22:32.992Z,51.77
2022-10-23T03:25:00.743Z,48.83
2022-10-23T03:29:59.540Z,49.83
2022-10-23T03:32:27.157Z,43.57
2022-10-23T03:34:54.529Z,40.97
2022-10-23T03:37:22.841Z,28.03
2022-10-23T03:39:51.147Z,33.63
2022-10-23T03:42:18.930Z,33.90
2022-10-23T03:44:46.853Z,40.83
2022-10-23T03:47:14.494Z,43.67
2022-10-23T03:49:42.065Z,34.93
2022-10-23T03:52:09.910Z,30.13
2022-10-23T03:54:38.569Z,32.88
2022-10-23T03:57:06.112Z,50.30
2022-10-23T03:59:33.999Z,48.80
2022-10-23T04:02:01.639Z,49.60
2022-10-23T04:04:30.407Z,47.17
2022-10-23T04:06:57.829Z,48.00
2022-10-23T04:09:25.410Z,49.47
2022-10-23T04:11:53.189Z,44.87
2022-10-23T04:14:20.551Z,44.30
2022-10-23T04:16:48.031Z,42.37
2022-10-23T04:19:17.335Z,48.87
2022-10-23T04:21:45.340Z,49.95
2022-10-23T04:24:13.072Z,48.80
2022-10-23T04:26:41.341Z,41.10
2022-10-23T04:29:10.069Z,40.42
2022-10-23T04:31:37.381Z,37.77
2022-10-23T04:36:33.566Z,43.30
2022-10-23T04:41:30.422Z,33.47
2022-10-23T04:43:57.869Z,32.40
2022-10-23T04:46:25.706Z,36.10
2022-10-23T04:48:53.450Z,43.33
2022-10-23T04:51:21.315Z,40.63
2022-10-23T04:53:49.177Z,36.23
2022-10-23T04:56:18.665Z,45.12
2022-10-23T04:58:46.326Z,56.00
2022-10-23T05:01:13.862Z,56.73
2022-10-23T05:03:42.025Z,50.00
2022-10-23T05:06:09.983Z,48.67
2022-10-23T05:08:37.863Z,40.90
2022-10-23T05:11:06.012Z,37.30
2022-10-23T05:13:36.562Z,33.30
2022-10-23T05:16:04.136Z,37.53
2022-10-23T05:18:38.313Z,37.20
2022-10-23T05:21:12.146Z,43.60
2022-10-23T05:23:44.609Z,50.67
2022-10-23T05:26:13.972Z,40.13
2022-10-23T05:28:43.037Z,40.57
2022-10-23T05:31:13.810Z,45.07
2022-10-23T05:33:41.954Z,36.70
2022-10-23T05:36:13.104Z,32.33
2022-10-23T05:38:41.037Z,32.07
2022-10-23T05:41:10.134Z,40.57
2022-10-23T05:43:37.971Z,41.53
2022-10-23T05:46:07.250Z,58.72
2022-10-23T05:48:35.618Z,89.82
2022-10-23T05:53:33.111Z,52.30
2022-10-23T05:56:08.760Z,49.55
2022-10-23T05:58:38.815Z,50.43
2022-10-23T06:01:12.531Z,37.53
2022-10-23T06:03:41.298Z,40.13
2022-10-23T06:06:09.840Z,29.58
2022-10-23T06:08:38.602Z,36.22
2022-10-23T06:11:11.443Z,25.07
2022-10-23T06:13:39.739Z,19.10
2022-10-23T06:16:15.509Z,25.23
2022-10-23T06:18:43.614Z,22.47
2022-10-23T06:21:11.492Z,35.15
2022-10-23T06:23:40.849Z,27.03
2022-10-23T06:26:10.694Z,27.17
2022-10-23T06:28:39.492Z,25.00
2022-10-23T06:31:13.230Z,16.60
2022-10-23T06:33:41.831Z,21.97
2022-10-23T06:36:10.861Z,17.08
2022-10-23T06:38:40.816Z,15.13
2022-10-23T06:41:14.453Z,16.77
2022-10-23T06:43:42.324Z,12.33
2022-10-23T06:46:14.772Z,17.70
2022-10-23T06:48:44.314Z,12.53
2022-10-23T06:51:14.299Z,13.23
2022-10-23T06:53:42.483Z,12.60
2022-10-23T06:56:11.238Z,12.37
2022-10-23T06:58:40.040Z,11.02
2022-10-23T07:03:37.169Z,9.37
2022-10-23T07:06:07.846Z,14.07
2022-10-23T07:08:36.769Z,10.20
2022-10-23T07:11:07.401Z,15.53
2022-10-23T07:13:36.692Z,11.37
2022-10-23T07:16:14.185Z,9.40
2022-10-23T07:18:42.322Z,9.27
2022-10-23T07:23:39.037Z,8.80
2022-10-23T07:26:16.277Z,9.43
2022-10-23T07:28:46.494Z,12.40
2022-10-23T07:31:17.854Z,8.83
2022-10-23T07:33:47.800Z,7.87
2022-10-23T07:36:16.189Z,10.52
2022-10-23T07:38:44.210Z,6.95
2022-10-23T07:41:12.558Z,8.85
2022-10-23T07:43:40.661Z,5.97
2022-10-23T07:46:11.512Z,7.10
2022-10-23T07:48:40.251Z,7.12
2022-10-23T07:51:12.976Z,12.98
2022-10-23T07:53:41.704Z,9.02
2022-10-23T07:58:47.946Z,13.80
2022-10-23T08:01:32.187Z,12.57
2022-10-23T08:04:01.094Z,9.93
2022-10-23T08:06:29.807Z,21.45
2022-10-23T08:08:59.899Z,22.98
2022-10-23T08:11:35.558Z,13.75
2022-10-23T08:14:05.243Z,18.35
2022-10-23T08:16:35.232Z,9.43
2022-10-23T08:19:07.038Z,6.03
2022-10-23T08:21:35.294Z,8.60
2022-10-23T08:24:03.103Z,9.88
2022-10-23T08:26:31.232Z,6.50
2022-10-23T08:29:00.200Z,11.73
2022-10-23T08:31:28.173Z,11.38
2022-10-23T08:33:57.068Z,15.88
2022-10-23T08:36:29.603Z,8.30
2022-10-23T08:38:58.409Z,7.93
2022-10-23T08:41:31.414Z,15.32
2022-10-23T08:44:24.533Z,5.57
2022-10-23T08:47:05.610Z,13.90
2022-10-23T08:49:48.401Z,27.35
2022-10-23T08:52:20.036Z,23.70
2022-10-23T08:54:57.755Z,9.75
2022-10-23T08:57:35.551Z,6.95
2022-10-23T09:00:08.507Z,6.00
2022-10-23T09:02:44.295Z,7.20
2022-10-23T09:05:37.008Z,11.52
2022-10-23T09:08:23.275Z,5.90
2022-10-23T09:11:27.206Z,5.70
2022-10-23T09:14:33.152Z,7.43
2022-10-23T09:17:31.585Z,8.27
2022-10-23T09:20:22.100Z,8.27
2022-10-23T09:22:54.456Z,8.20
2022-10-23T09:25:29.325Z,3.75
2022-10-23T09:28:05.286Z,3.47
2022-10-23T09:30:42.662Z,4.32
2022-10-23T09:33:28.722Z,4.85
2022-10-23T09:35:58.430Z,5.95
2022-10-23T09:38:37.961Z,4.15
2022-10-23T09:41:40.142Z,7.93
2022-10-23T09:44:07.547Z,5.05
2022-10-23T09:46:56.469Z,6.55
2022-10-23T09:49:29.886Z,7.00
2022-10-23T09:52:24.685Z,9.38
2022-10-23T09:54:56.319Z,9.65
2022-10-23T09:57:45.126Z,7.35
2022-10-23T10:00:14.190Z,6.07
2022-10-23T10:02:44.316Z,4.75
2022-10-23T10:05:37.154Z,5.78
2022-10-23T10:08:20.675Z,5.47
2022-10-23T10:10:52.466Z,5.35
2022-10-23T10:13:49.699Z,8.55
2022-10-23T10:19:31.904Z,9.75
2022-10-23T10:22:23.821Z,6.95
2022-10-23T10:25:03.194Z,7.45
2022-10-23T10:28:04.875Z,16.12
2022-10-23T10:30:57.331Z,6.43
2022-10-23T10:33:37.831Z,6.05
2022-10-23T10:36:30.856Z,6.72
2022-10-23T10:39:04.076Z,5.85
2022-10-23T10:41:45.563Z,5.40
2022-10-23T10:44:28.369Z,9.98
2022-10-23T10:47:38.035Z,3.80
2022-10-23T10:50:05.590Z,10.88
2022-10-23T10:52:48.292Z,4.97
2022-10-23T10:55:49.564Z,5.62
2022-10-23T10:58:23.908Z,4.05
2022-10-23T11:01:00.566Z,4.45
2022-10-23T11:03:40.284Z,8.23
2022-10-23T11:06:15.380Z,6.30
2022-10-23T11:08:56.387Z,5.55
2022-10-23T11:11:28.723Z,3.08
2022-10-23T11:13:57.759Z,2.65
2022-10-23T11:19:21.625Z,9.13
2022-10-23T11:22:07.412Z,5.57
2022-10-23T11:25:17.456Z,9.95
2022-10-23T11:28:01.695Z,2.85
2022-10-23T11:30:38.849Z,5.43
2022-10-23T11:33:28.120Z,3.22
2022-10-23T11:36:07.206Z,8.23
2022-10-23T11:38:37.659Z,2.95
2022-10-23T11:41:19.939Z,3.62
2022-10-23T11:43:57.223Z,5.68
2022-10-23T11:46:25.710Z,6.93
2022-10-23T11:48:55.059Z,4.82
2022-10-23T11:51:33.435Z,5.50
2022-10-23T11:54:10.344Z,6.07
2022-10-23T11:56:39.441Z,5.18
2022-10-23T11:59:39.367Z,8.70
2022-10-23T12:02:28.768Z,4.45
2022-10-23T12:04:56.854Z,3.62
2022-10-23T12:07:29.044Z,6.70
2022-10-23T12:10:04.909Z,4.68
2022-10-23T12:12:32.564Z,4.53
2022-10-23T12:15:27.254Z,5.45
2022-10-23T12:18:07.837Z,7.20
2022-10-23T12:20:42.973Z,6.68
2022-10-23T12:23:24.143Z,4.70
2022-10-23T12:25:58.091Z,2.58
2022-10-23T12:28:42.387Z,3.15
2022-10-23T12:31:47.969Z,6.32
2022-10-23T12:34:48.087Z,11.75
2022-10-23T12:37:44.807Z,56.58
2022-10-23T12:40:12.726Z,14.65
2022-10-23T12:42:41.652Z,42.58
2022-10-23T12:45:22.761Z,4.32
2022-10-23T12:47:52.434Z,6.47
2022-10-23T12:50:23.362Z,5.32
2022-10-23T12:52:52.959Z,4.05
2022-10-23T12:55:21.235Z,7.18
2022-10-23T12:57:48.886Z,14.07
2022-10-23T13:00:20.465Z,6.95
2022-10-23T13:02:58.110Z,6.22
2022-10-23T13:05:27.296Z,5.50
2022-10-23T13:07:55.534Z,7.05
2022-10-23T13:10:25.298Z,8.63
2022-10-23T13:13:00.376Z,6.70
2022-10-23T13:15:38.358Z,13.23
2022-10-23T13:18:08.273Z,6.15
2022-10-23T13:20:43.547Z,7.25
2022-10-23T13:23:19.141Z,12.63
2022-10-23T13:26:21.667Z,11.00
2022-10-23T13:28:50.432Z,7.10
2022-10-23T13:31:17.928Z,16.17
2022-10-23T13:33:47.293Z,7.85
2022-10-23T13:36:15.054Z,8.73
2022-10-23T13:38:58.913Z,17.00
2022-10-23T13:41:31.875Z,2.55
2022-10-23T13:43:59.332Z,5.22
2022-10-23T13:46:27.083Z,14.50
2022-10-23T13:48:54.559Z,9.32
2022-10-23T13:51:25.551Z,8.52
2022-10-23T13:53:54.380Z,5.57
2022-10-23T13:56:24.428Z,4.50
2022-10-23T13:58:52.078Z,8.10
2022-10-23T14:01:28.019Z,6.35
2022-10-23T14:03:57.880Z,4.87
2022-10-23T14:06:25.834Z,3.28
2022-10-23T14:08:53.267Z,2.42
2022-10-23T14:11:21.719Z,3.37
2022-10-23T14:13:49.799Z,3.20
2022-10-23T14:16:19.751Z,5.03
2022-10-23T14:18:48.302Z,6.72
2022-10-23T14:21:22.151Z,3.50
2022-10-23T14:23:51.847Z,7.45
2022-10-23T14:26:25.890Z,11.38
2022-10-23T14:29:00.701Z,3.00
2022-10-23T14:31:32.201Z,8.90
2022-10-23T14:34:01.913Z,7.47
2022-10-23T14:36:38.636Z,5.05
2022-10-23T14:39:17.795Z,5.18
2022-10-23T14:41:45.226Z,92.00
2022-10-23T14:44:12.733Z,7.05
2022-10-23T14:46:40.739Z,8.88
2022-10-23T14:49:08.009Z,14.85
2022-10-23T14:51:35.601Z,10.93
2022-10-23T14:54:06.409Z,14.30
2022-10-23T14:56:36.839Z,13.50
2022-10-23T14:59:04.887Z,50.75
2022-10-23T15:01:35.450Z,41.47
2022-10-23T15:04:03.184Z,28.92
2022-10-23T15:06:31.230Z,20.60
2022-10-23T15:08:58.667Z,13.77
2022-10-23T15:11:27.312Z,12.77
2022-10-23T15:13:55.943Z,9.13
2022-10-23T15:16:24.710Z,6.87
2022-10-23T15:18:52.525Z,4.87
2022-10-23T15:21:20.544Z,12.60
2022-10-23T15:23:48.653Z,5.05
2022-10-23T15:26:23.533Z,4.40
2022-10-23T15:28:56.604Z,6.43
2022-10-23T15:31:58.069Z,8.60
2022-10-23T15:34:29.103Z,5.72
2022-10-23T15:36:57.856Z,4.93
2022-10-23T15:39:33.984Z,3.33
2022-10-23T15:42:04.271Z,2.62
2022-10-23T15:44:33.873Z,5.22
2022-10-23T15:47:01.609Z,4.55
2022-10-23T15:49:32.886Z,3.55
2022-10-23T15:52:00.812Z,55.92
2022-10-23T15:54:30.667Z,13.60
2022-10-23T15:57:01.219Z,9.57
2022-10-23T15:59:30.497Z,14.83
2022-10-23T16:01:58.193Z,10.55
2022-10-23T16:04:26.197Z,13.45
2022-10-23T16:06:53.628Z,20.08
2022-10-23T16:09:21.571Z,15.57
2022-10-23T16:11:49.380Z,16.87
2022-10-23T16:14:17.793Z,24.85
2022-10-23T16:16:45.384Z,13.10
2022-10-23T16:19:13.297Z,60.22
2022-10-23T16:21:41.711Z,24.63
2022-10-23T16:24:09.674Z,32.45
2022-10-23T16:26:38.127Z,31.70
2022-10-23T16:29:08.374Z,35.37
2022-10-23T16:31:36.107Z,22.33
2022-10-23T16:34:05.590Z,30.93
2022-10-23T16:36:34.722Z,26.07
2022-10-23T16:39:04.417Z,42.97
2022-10-23T16:41:40.617Z,28.17
2022-10-23T16:44:15.970Z,20.03
2022-10-23T16:46:45.613Z,11.97
2022-10-23T16:49:14.120Z,11.30
2022-10-23T16:51:41.569Z,7.72
2022-10-23T16:54:09.802Z,21.47
2022-10-23T16:56:37.248Z,14.90
2022-10-23T16:59:04.664Z,28.70
2022-10-23T17:01:33.657Z,22.27
2022-10-23T17:04:01.944Z,21.33
2022-10-23T17:13:37.770Z,66.13
2022-10-23T17:16:09.535Z,166.93
2022-10-23T17:18:42.854Z,131.37
2022-10-23T17:21:17.517Z,66.70
2022-10-23T17:23:45.630Z,44.13
2022-10-23T17:26:17.016Z,33.40
2022-10-23T17:28:44.864Z,23.00
2022-10-23T17:31:15.667Z,21.87
2022-10-23T17:33:43.744Z,13.40
2022-10-23T17:36:13.949Z,11.10
2022-10-23T17:38:45.850Z,11.00
2022-10-23T17:41:15.812Z,9.03
2022-10-23T17:43:44.733Z,22.67
2022-10-23T17:46:13.830Z,57.90
2022-10-23T17:51:17.285Z,41.33
2022-10-23T17:53:47.923Z,24.17
2022-10-23T17:56:20.172Z,33.77
2022-10-23T17:58:47.761Z,48.67
2022-10-23T18:01:18.379Z,42.83
2022-10-23T18:03:46.387Z,31.23
2022-10-23T18:06:18.087Z,34.13
2022-10-23T18:08:46.560Z,39.93
2022-10-23T18:11:32.600Z,69.00
2022-10-23T18:14:01.600Z,57.37
2022-10-23T18:16:29.722Z,53.13
2022-10-23T18:19:00.025Z,49.23
2022-10-23T18:21:28.091Z,49.87
2022-10-23T18:23:55.865Z,40.63
2022-10-23T18:26:26.821Z,30.43
2022-10-23T18:28:57.552Z,58.50
2022-10-23T18:31:27.323Z,32.23
2022-10-23T18:34:01.607Z,32.80
2022-10-23T18:36:31.868Z,27.97
2022-10-23T18:38:59.959Z,32.27
2022-10-23T18:41:28.250Z,34.37
2022-10-23T18:43:55.670Z,24.92
2022-10-23T18:46:23.316Z,18.43
2022-10-23T18:48:53.782Z,15.20
2022-10-23T18:51:33.311Z,15.67
2022-10-23T18:54:04.322Z,18.17
2022-10-23T18:56:33.772Z,17.90
2022-10-23T18:59:03.742Z,53.53
2022-10-23T19:01:32.070Z,32.70
2022-10-23T19:04:01.566Z,32.10
2022-10-23T19:06:30.377Z,32.70
2022-10-23T19:08:58.694Z,33.80
2022-10-23T19:11:27.538Z,29.95
2022-10-23T19:13:55.711Z,33.93
2022-10-23T19:17:03.043Z,41.40
2022-10-23T19:19:35.951Z,62.50
2022-10-23T19:22:04.417Z,37.97
2022-10-23T19:24:39.801Z,44.85
2022-10-23T19:27:08.759Z,36.70
2022-10-23T19:29:40.117Z,40.77
2022-10-23T19:32:07.590Z,40.30
2022-10-23T19:34:35.274Z,51.80
2022-10-23T19:37:03.064Z,47.90
2022-10-23T19:39:30.496Z,46.57
2022-10-23T19:41:58.718Z,37.77
2022-10-23T19:44:26.834Z,35.03
2022-10-23T19:46:54.256Z,38.37
2022-10-23T19:49:24.004Z,35.30
2022-10-23T19:51:51.901Z,32.10
2022-10-23T19:54:21.082Z,32.93
2022-10-23T19:59:17.150Z,23.80
2022-10-23T20:01:47.803Z,12.63
2022-10-23T20:04:18.520Z,15.17
2022-10-23T20:06:46.923Z,12.67
2022-10-23T20:09:14.334Z,16.10
2022-10-23T20:11:43.629Z,20.33
2022-10-23T20:14:11.442Z,57.38
2022-10-23T20:16:40.003Z,44.80
2022-10-23T20:19:10.440Z,47.38
2022-10-23T20:21:39.825Z,41.00
2022-10-23T20:24:08.287Z,53.03
2022-10-23T20:26:36.203Z,52.42
2022-10-23T20:29:03.817Z,35.57
2022-10-23T20:31:33.615Z,42.47
2022-10-23T20:34:01.483Z,40.93
2022-10-23T20:36:35.008Z,32.33
2022-10-23T20:39:12.148Z,41.50
2022-10-23T20:41:40.927Z,24.17
2022-10-23T20:46:37.472Z,13.73
2022-10-23T20:49:05.104Z,27.23
2022-10-23T20:51:33.374Z,38.37
2022-10-23T20:54:00.827Z,61.30
2022-10-23T20:56:31.448Z,60.53
2022-10-23T20:59:01.251Z,47.03
2022-10-23T21:01:30.463Z,37.83
2022-10-23T21:03:59.971Z,22.53
2022-10-23T21:06:41.046Z,42.20
2022-10-23T21:09:18.915Z,65.57
2022-10-23T21:11:46.832Z,45.88
2022-10-23T21:14:14.291Z,48.30
2022-10-23T21:16:44.606Z,51.00
2022-10-23T21:19:14.744Z,34.97
2022-10-23T21:21:43.009Z,40.30
2022-10-23T21:24:15.160Z,123.80
2022-10-23T21:26:43.064Z,55.63
2022-10-23T21:29:19.853Z,26.30
2022-10-23T21:31:59.844Z,19.37
2022-10-23T21:34:28.339Z,9.17
2022-10-23T21:37:13.380Z,14.07
2022-10-23T21:39:46.379Z,10.20
2022-10-23T21:42:14.558Z,13.70
2022-10-23T21:44:41.975Z,14.20
2022-10-23T21:47:09.560Z,56.67
2022-10-23T21:49:37.489Z,56.37
2022-10-23T21:52:05.294Z,53.80
2022-10-23T21:54:33.142Z,41.00
2022-10-23T21:57:03.412Z,27.55
2022-10-23T21:59:33.170Z,30.50
2022-10-23T22:02:03.356Z,30.13
2022-10-23T22:04:31.449Z,29.40
2022-10-23T22:06:58.762Z,24.23
2022-10-23T22:09:26.033Z,21.27
2022-10-23T22:11:54.372Z,14.80
2022-10-23T22:14:23.051Z,12.67
2022-10-23T22:16:50.457Z,14.70
2022-10-23T22:19:20.104Z,14.10
2022-10-23T22:21:48.744Z,25.50
2022-10-23T22:24:17.765Z,32.15
2022-10-23T22:26:51.733Z,27.57
2022-10-23T22:29:24.957Z,32.50
2022-10-23T22:31:53.520Z,27.10
2022-10-23T22:37:12.220Z,29.30
2022-10-23T22:39:40.364Z,27.17
2022-10-23T22:42:08.014Z,29.83
2022-10-23T22:44:35.840Z,44.03
2022-10-23T22:47:03.605Z,34.07
2022-10-23T22:49:31.046Z,28.87
2022-10-23T22:51:58.812Z,28.07
2022-10-23T22:54:26.244Z,32.77
2022-10-23T22:56:53.686Z,32.90
2022-10-23T22:59:21.425Z,29.93
2022-10-23T23:01:49.513Z,27.27
2022-10-23T23:07:08.763Z,29.30
2022-10-23T23:09:41.673Z,44.23
2022-10-23T23:12:11.360Z,48.33
2022-10-23T23:14:39.543Z,40.93
2022-10-23T23:17:08.202Z,35.87
2022-10-23T23:19:36.206Z,40.00
2022-10-23T23:22:03.945Z,31.93
2022-10-23T23:24:32.262Z,40.57
2022-10-23T23:26:59.970Z,32.35
2022-10-23T23:29:28.522Z,38.37
2022-10-23T23:31:56.132Z,41.55
2022-10-23T23:34:23.983Z,34.70
2022-10-23T23:36:51.498Z,32.07
2022-10-23T23:39:18.873Z,31.13
2022-10-23T23:41:46.736Z,36.60
2022-10-23T23:44:14.248Z,31.00
2022-10-23T23:46:41.755Z,33.23
2022-10-23T23:49:09.428Z,29.13
2022-10-23T23:51:37.437Z,30.03
2022-10-23T23:54:04.968Z,27.47
2022-10-23T23:56:32.756Z,33.13
2022-10-23T23:59:00.114Z,34.50
